createdAt,value
2018-11-20T00:00:37.017Z,4.97
2018-11-20T00:03:31.556Z,5.37
2018-11-20T00:06:31.640Z,5.57
2018-11-20T00:09:18.692Z,4.97
2018-11-20T00:12:09.917Z,5.07
2018-11-20T00:15:00.981Z,4.33
2018-11-20T00:17:38.101Z,6.00
2018-11-20T00:20:22.632Z,5.23
2018-11-20T00:23:10.950Z,4.83
2018-11-20T00:26:08.514Z,4.83
2018-11-20T00:28:48.062Z,4.67
2018-11-20T00:31:34.542Z,5.30
2018-11-20T00:34:13.234Z,5.67
2018-11-20T00:36:53.820Z,4.77
2018-11-20T00:40:00.555Z,5.17
2018-11-20T00:43:06.713Z,5.13
2018-11-20T00:46:12.703Z,6.50
2018-11-20T00:48:59.584Z,5.07
2018-11-20T00:51:41.671Z,5.97
2018-11-20T00:54:39.032Z,4.83
2018-11-20T00:57:26.137Z,5.00
2018-11-20T01:00:26.729Z,5.67
2018-11-20T01:03:10.047Z,4.90
2018-11-20T01:06:00.941Z,5.63
2018-11-20T01:08:38.143Z,5.97
2018-11-20T01:11:26.492Z,5.37
2018-11-20T01:14:20.849Z,6.17
2018-11-20T01:17:12.745Z,6.30
2018-11-20T01:20:01.026Z,6.30
2018-11-20T01:23:00.937Z,6.30
2018-11-20T01:25:47.839Z,5.57
2018-11-20T01:28:36.122Z,6.53
2018-11-20T01:31:27.244Z,6.23
2018-11-20T01:34:13.024Z,7.73
2018-11-20T01:37:01.607Z,7.97
2018-11-20T01:39:58.748Z,7.87
2018-11-20T01:43:02.414Z,6.50
2018-11-20T01:45:53.751Z,8.87
2018-11-20T01:48:34.396Z,8.47
2018-11-20T01:51:28.081Z,7.97
2018-11-20T01:54:10.372Z,7.30
2018-11-20T01:56:57.266Z,8.67
2018-11-20T01:59:54.508Z,7.80
2018-11-20T02:02:40.950Z,7.43
2018-11-20T02:05:41.270Z,6.97
2018-11-20T02:08:38.654Z,9.77
2018-11-20T02:11:29.058Z,8.40
2018-11-20T02:14:29.158Z,7.50
2018-11-20T02:17:32.081Z,11.50
2018-11-20T02:20:29.303Z,8.50
2018-11-20T02:23:35.645Z,8.63
2018-11-20T02:26:39.176Z,9.57
2018-11-20T02:29:39.427Z,9.17
2018-11-20T02:32:27.719Z,8.37
2018-11-20T02:35:33.882Z,7.57
2018-11-20T02:38:25.948Z,9.73
2018-11-20T02:41:02.052Z,8.57
2018-11-20T02:43:42.325Z,10.00
2018-11-20T02:46:30.167Z,8.87
2018-11-20T02:49:24.440Z,10.03
2018-11-20T02:52:07.951Z,10.50
2018-11-20T02:54:55.165Z,8.93
2018-11-20T02:57:55.176Z,9.83
2018-11-20T03:00:46.368Z,9.93
2018-11-20T03:03:43.402Z,9.17
2018-11-20T03:06:33.348Z,10.03
2018-11-20T03:09:24.403Z,10.87
2018-11-20T03:12:11.479Z,11.00
2018-11-20T03:14:51.839Z,10.30
2018-11-20T03:17:38.650Z,9.70
2018-11-20T03:20:15.388Z,12.30
2018-11-20T03:23:06.392Z,8.77
2018-11-20T03:26:07.931Z,10.30
2018-11-20T03:28:59.059Z,10.53
2018-11-20T03:31:38.389Z,9.63
2018-11-20T03:34:41.739Z,9.53
2018-11-20T03:37:29.592Z,7.67
2018-11-20T03:40:16.546Z,10.93
2018-11-20T03:43:04.833Z,10.67
2018-11-20T03:45:51.480Z,9.50
2018-11-20T03:48:38.226Z,9.23
2018-11-20T03:51:27.177Z,10.70
2018-11-20T03:54:09.714Z,9.40
2018-11-20T03:56:56.359Z,11.43
2018-11-20T03:59:43.223Z,9.77
2018-11-20T04:02:34.141Z,11.67
2018-11-20T04:05:24.814Z,10.13
2018-11-20T04:08:11.756Z,9.50
2018-11-20T04:11:00.373Z,11.03
2018-11-20T04:13:37.625Z,11.50
2018-11-20T04:16:22.821Z,11.13
2018-11-20T04:19:23.416Z,10.97
2018-11-20T04:22:12.295Z,11.13
2018-11-20T04:25:03.469Z,10.20
2018-11-20T04:27:58.903Z,11.20
2018-11-20T04:31:35.462Z,11.03
2018-11-20T04:34:23.764Z,11.93
2018-11-20T04:37:38.325Z,10.87
2018-11-20T04:40:45.532Z,11.07
2018-11-20T04:43:39.454Z,11.77
2018-11-20T04:46:26.242Z,11.80
2018-11-20T04:49:17.419Z,10.93
2018-11-20T04:52:01.688Z,12.33
2018-11-20T04:54:39.370Z,11.57
2018-11-20T04:57:26.266Z,11.10
2018-11-20T05:00:13.083Z,11.57
2018-11-20T05:03:00.237Z,12.53
2018-11-20T05:05:48.956Z,13.33
2018-11-20T05:08:31.020Z,10.43
2018-11-20T05:11:17.693Z,11.30
2018-11-20T05:14:04.610Z,13.07
2018-11-20T05:16:51.625Z,10.87
2018-11-20T05:19:34.649Z,11.73
2018-11-20T05:22:21.412Z,10.07
2018-11-20T05:25:09.120Z,10.07
2018-11-20T05:28:00.132Z,11.73
2018-11-20T05:31:00.161Z,10.97
2018-11-20T05:34:06.469Z,10.70
2018-11-20T05:36:53.138Z,12.53
2018-11-20T05:39:44.389Z,12.50
2018-11-20T05:42:21.238Z,10.47
2018-11-20T05:45:07.068Z,13.07
2018-11-20T05:47:53.982Z,11.33
2018-11-20T05:50:45.344Z,11.33
2018-11-20T05:53:26.798Z,11.23
2018-11-20T05:56:10.449Z,13.40
2018-11-20T05:59:16.676Z,11.57
2018-11-20T06:02:10.623Z,11.83
2018-11-20T06:04:58.913Z,11.67
2018-11-20T06:07:51.326Z,14.90
2018-11-20T06:10:45.711Z,12.47
2018-11-20T06:13:33.955Z,12.10
2018-11-20T06:16:28.131Z,13.80
2018-11-20T06:19:15.338Z,14.13
2018-11-20T06:22:03.192Z,13.90
2018-11-20T06:24:38.921Z,12.13
2018-11-20T06:27:22.641Z,13.87
2018-11-20T06:30:13.454Z,12.17
2018-11-20T06:32:57.482Z,12.00
2018-11-20T06:35:44.245Z,13.47
2018-11-20T06:38:27.397Z,12.60
2018-11-20T06:41:14.164Z,12.03
2018-11-20T06:44:14.461Z,12.40
2018-11-20T06:47:01.438Z,11.87
2018-11-20T06:49:56.542Z,14.10
2018-11-20T06:52:45.630Z,13.23
2018-11-20T06:55:45.797Z,12.83
2018-11-20T06:58:32.754Z,14.37
2018-11-20T07:02:53.651Z,14.63
2018-11-20T07:05:43.700Z,14.23
2018-11-20T07:08:43.776Z,12.00
2018-11-20T07:11:30.540Z,14.07
2018-11-20T07:14:14.971Z,14.43
2018-11-20T07:17:12.361Z,13.67
2018-11-20T07:19:58.274Z,14.57
2018-11-20T07:22:36.542Z,15.57
2018-11-20T07:25:33.285Z,16.13
2018-11-20T07:28:19.540Z,15.30
2018-11-20T07:31:26.658Z,15.43
2018-11-20T07:34:22.973Z,16.80
2018-11-20T07:37:16.351Z,15.63
2018-11-20T07:40:02.308Z,16.47
2018-11-20T07:42:48.870Z,14.77
2018-11-20T07:45:34.743Z,15.50
2018-11-20T07:48:31.680Z,18.50
2018-11-20T07:51:17.941Z,15.37
2018-11-20T07:54:23.758Z,16.17
2018-11-20T07:57:14.208Z,15.80
2018-11-20T08:00:16.652Z,16.13
2018-11-20T08:03:02.020Z,15.67
2018-11-20T08:05:52.169Z,14.70
2018-11-20T08:08:31.966Z,15.53
2018-11-20T08:11:22.211Z,15.30
2018-11-20T08:14:02.383Z,15.33
2018-11-20T08:16:47.461Z,16.00
2018-11-20T08:19:43.360Z,19.47
2018-11-20T08:22:30.883Z,17.00
2018-11-20T08:25:30.451Z,15.47
2018-11-20T08:28:09.905Z,18.77
2018-11-20T08:31:12.985Z,15.60
2018-11-20T08:33:59.123Z,15.80
2018-11-20T08:36:45.218Z,18.03
2018-11-20T08:39:31.401Z,16.33
2018-11-20T08:42:28.001Z,17.17
2018-11-20T08:45:18.248Z,19.77
2018-11-20T08:48:04.190Z,19.57
2018-11-20T08:50:39.261Z,21.17
2018-11-20T08:53:20.426Z,18.80
2018-11-20T08:56:10.805Z,19.60
2018-11-20T08:59:10.250Z,20.93
2018-11-20T09:02:03.672Z,18.87
2018-11-20T09:04:49.575Z,18.73
2018-11-20T09:07:34.912Z,20.70
2018-11-20T09:10:31.307Z,20.70
2018-11-20T09:13:18.856Z,20.00
2018-11-20T09:16:09.036Z,18.63
2018-11-20T09:19:08.567Z,20.57
2018-11-20T09:21:46.960Z,22.33
2018-11-20T09:24:32.987Z,22.83
2018-11-20T09:27:21.072Z,20.73
2018-11-20T09:30:07.231Z,21.67
2018-11-20T09:32:54.673Z,22.13
2018-11-20T09:35:41.415Z,23.47
2018-11-20T09:38:28.724Z,20.60
2018-11-20T09:41:14.555Z,23.00
2018-11-20T09:44:26.366Z,23.43
2018-11-20T09:47:19.624Z,21.10
2018-11-20T09:50:09.646Z,22.13
2018-11-20T09:52:55.492Z,22.33
2018-11-20T09:55:41.291Z,20.80
2018-11-20T09:58:27.164Z,22.47
2018-11-20T10:01:12.727Z,22.60
2018-11-20T10:04:02.501Z,22.60
2018-11-20T10:07:08.776Z,24.10
2018-11-20T10:09:45.790Z,23.13
2018-11-20T10:12:39.145Z,22.37
2018-11-20T10:15:25.694Z,21.87
2018-11-20T10:18:28.039Z,22.57
2018-11-20T10:21:10.322Z,23.57
2018-11-20T10:24:10.014Z,23.50
2018-11-20T10:26:53.656Z,22.23
2018-11-20T10:29:46.895Z,21.77
2018-11-20T10:32:33.975Z,25.40
2018-11-20T10:35:36.695Z,25.13
2018-11-20T10:38:30.304Z,23.83
2018-11-20T10:41:23.750Z,20.93
2018-11-20T10:44:09.382Z,20.40
2018-11-20T10:47:05.548Z,19.40
2018-11-20T10:49:51.649Z,21.70
2018-11-20T10:52:36.951Z,22.77
2018-11-20T10:55:27.473Z,22.60
2018-11-20T10:58:20.933Z,23.20
2018-11-20T11:01:06.886Z,20.37
2018-11-20T11:03:53.004Z,23.63
2018-11-20T11:06:49.506Z,25.53
2018-11-20T11:09:19.820Z,21.00
2018-11-20T11:12:11.939Z,20.90
2018-11-20T11:14:59.373Z,21.10
2018-11-20T11:17:45.646Z,24.13
2018-11-20T11:20:36.295Z,21.80
2018-11-20T11:23:22.384Z,21.97
2018-11-20T11:26:21.824Z,25.13
2018-11-20T11:29:08.068Z,23.87
2018-11-20T11:31:54.279Z,21.73
2018-11-20T11:34:41.762Z,20.17
2018-11-20T11:37:34.579Z,20.93
2018-11-20T11:40:27.654Z,20.73
2018-11-20T11:43:15.934Z,22.57
2018-11-20T11:46:21.511Z,24.83
2018-11-20T11:49:26.839Z,20.97
2018-11-20T11:52:03.857Z,22.40
2018-11-20T11:55:06.592Z,22.60
2018-11-20T11:57:44.730Z,21.20
2018-11-20T12:00:41.268Z,23.27
2018-11-20T12:03:31.307Z,21.47
2018-11-20T12:06:17.356Z,22.90
2018-11-20T12:09:15.227Z,21.93
2018-11-20T12:12:10.674Z,24.17
2018-11-20T12:15:03.912Z,22.53
2018-11-20T12:17:59.273Z,22.30
2018-11-20T12:20:49.821Z,21.30
2018-11-20T12:23:35.976Z,22.47
2018-11-20T12:26:38.460Z,21.10
2018-11-20T12:29:14.826Z,21.97
2018-11-20T12:32:08.495Z,20.53
2018-11-20T12:34:54.375Z,20.03
2018-11-20T12:37:43.640Z,22.13
2018-11-20T12:40:20.354Z,21.13
2018-11-20T12:43:01.185Z,21.60
2018-11-20T12:46:04.450Z,24.77
2018-11-20T12:48:56.303Z,22.20
2018-11-20T12:51:40.790Z,24.10
2018-11-20T12:54:29.809Z,22.47
2018-11-20T12:57:30.485Z,22.77
2018-11-20T13:00:21.588Z,21.73
2018-11-20T13:03:12.073Z,21.93
2018-11-20T13:05:59.588Z,21.80
2018-11-20T13:08:46.492Z,19.63
2018-11-20T13:11:36.693Z,19.67
2018-11-20T13:14:27.031Z,22.03
2018-11-20T13:17:06.984Z,23.10
2018-11-20T13:19:50.048Z,24.80
2018-11-20T13:22:43.511Z,21.90
2018-11-20T13:25:21.928Z,22.07
2018-11-20T13:28:08.004Z,22.07
2018-11-20T13:30:54.515Z,19.63
2018-11-20T13:33:40.579Z,21.60
2018-11-20T13:36:26.980Z,23.83
2018-11-20T13:39:15.374Z,23.50
2018-11-20T13:41:51.893Z,20.40
2018-11-20T13:44:45.377Z,22.30
2018-11-20T13:47:31.997Z,21.87
2018-11-20T13:50:24.762Z,20.57
2018-11-20T13:53:11.946Z,21.57
2018-11-20T13:56:01.403Z,22.83
2018-11-20T13:59:00.892Z,24.37
2018-11-20T14:01:48.388Z,26.23
2018-11-20T14:04:38.621Z,24.27
2018-11-20T14:07:25.044Z,25.13
2018-11-20T14:10:18.351Z,24.03
2018-11-20T14:13:04.214Z,23.30
2018-11-20T14:15:51.978Z,23.83
2018-11-20T14:18:45.859Z,23.27
2018-11-20T14:21:45.255Z,22.47
2018-11-20T14:24:35.410Z,23.77
2018-11-20T14:27:34.617Z,26.90
2018-11-20T14:30:22.503Z,26.13
2018-11-20T14:33:12.569Z,27.33
2018-11-20T14:36:12.099Z,26.50
2018-11-20T14:38:59.591Z,25.40
2018-11-20T14:41:47.050Z,28.73
2018-11-20T14:44:24.100Z,25.53
2018-11-20T14:47:10.523Z,27.80
2018-11-20T14:50:00.770Z,29.67
2018-11-20T14:52:46.692Z,28.20
2018-11-20T14:55:34.207Z,23.53
2018-11-20T14:58:21.154Z,25.17
2018-11-20T15:01:14.867Z,25.90
2018-11-20T15:04:08.318Z,25.87
2018-11-20T15:06:54.335Z,27.00
2018-11-20T15:09:44.634Z,27.40
2018-11-20T15:12:30.823Z,27.27
2018-11-20T15:15:27.782Z,26.03
2018-11-20T15:18:18.073Z,27.80
2018-11-20T15:21:14.169Z,26.43
2018-11-20T15:24:04.413Z,27.10
2018-11-20T15:26:55.897Z,28.97
2018-11-20T15:29:46.268Z,25.93
2018-11-20T15:32:33.760Z,25.77
2018-11-20T15:35:16.722Z,29.93
2018-11-20T15:38:09.775Z,29.27
2018-11-20T15:40:54.656Z,28.93
2018-11-20T15:43:45.011Z,26.87
2018-11-20T15:46:34.589Z,28.77
2018-11-20T15:49:36.907Z,27.10
2018-11-20T15:52:30.542Z,28.63
2018-11-20T15:55:16.335Z,26.63
2018-11-20T15:58:05.200Z,25.90
2018-11-20T16:00:51.180Z,26.77
2018-11-20T16:03:36.997Z,27.00
2018-11-20T16:06:24.599Z,20.33
2018-11-20T16:09:11.190Z,30.10
2018-11-20T16:12:04.589Z,30.13
2018-11-20T16:14:54.669Z,29.73
2018-11-20T16:17:44.953Z,28.77
2018-11-20T16:20:35.195Z,27.90
2018-11-20T16:23:21.455Z,29.47
2018-11-20T16:26:03.168Z,29.57
2018-11-20T16:28:51.230Z,27.10
2018-11-20T16:31:37.385Z,28.33
2018-11-20T16:34:25.712Z,28.50
2018-11-20T16:37:13.248Z,27.87
2018-11-20T16:40:43.341Z,30.87
2018-11-20T16:43:48.791Z,26.40
2018-11-20T16:46:54.263Z,28.97
2018-11-20T16:49:40.437Z,27.27
2018-11-20T16:52:26.904Z,24.77
2018-11-20T16:55:13.101Z,27.80
2018-11-20T16:57:56.378Z,29.17
2018-11-20T17:00:47.250Z,28.57
2018-11-20T17:03:37.576Z,26.60
2018-11-20T17:06:24.425Z,26.60
2018-11-20T17:09:19.782Z,31.70
2018-11-20T17:12:07.609Z,25.97
2018-11-20T17:14:58.173Z,23.40
2018-11-20T17:17:54.222Z,24.63
2018-11-20T17:20:37.267Z,28.93
2018-11-20T17:23:23.678Z,27.10
2018-11-20T17:26:14.546Z,26.77
2018-11-20T17:29:04.768Z,25.43
2018-11-20T17:32:07.599Z,27.33
2018-11-20T17:34:50.177Z,27.73
2018-11-20T17:37:43.623Z,26.50
2018-11-20T17:40:37.056Z,26.17
2018-11-20T17:43:42.715Z,24.30
2018-11-20T17:46:39.200Z,25.90
2018-11-20T17:49:18.711Z,26.77
2018-11-20T17:52:06.236Z,25.90
2018-11-20T17:55:02.812Z,26.80
2018-11-20T17:57:57.138Z,26.13
2018-11-20T18:00:46.804Z,26.90
2018-11-20T18:03:32.882Z,26.53
2018-11-20T18:06:11.054Z,24.73
2018-11-20T18:08:57.382Z,26.00
2018-11-20T18:11:45.278Z,28.03
2018-11-20T18:14:31.284Z,27.87
2018-11-20T18:17:21.797Z,26.60
2018-11-20T18:20:15.073Z,26.37
2018-11-20T18:23:04.571Z,27.27
2018-11-20T18:26:01.317Z,26.80
2018-11-20T18:28:47.682Z,27.80
2018-11-20T18:31:41.194Z,25.03
2018-11-20T18:34:27.479Z,25.17
2018-11-20T18:37:17.819Z,24.87
2018-11-20T18:40:14.266Z,23.77
2018-11-20T18:43:02.266Z,25.33
2018-11-20T18:45:43.692Z,24.00
2018-11-20T18:48:34.347Z,24.10
2018-11-20T18:51:22.401Z,24.80
2018-11-20T18:54:10.191Z,23.53
2018-11-20T18:56:58.535Z,21.40
2018-11-20T18:59:44.428Z,21.53
2018-11-20T19:02:34.447Z,21.23
2018-11-20T19:05:20.546Z,24.07
2018-11-20T19:08:20.460Z,20.40
2018-11-20T19:11:10.659Z,19.87
2018-11-20T19:14:01.216Z,21.43
2018-11-20T19:16:52.924Z,20.00
2018-11-20T19:19:43.010Z,29.80
2018-11-20T19:22:33.142Z,19.00
2018-11-20T19:25:26.404Z,21.50
2018-11-20T19:28:12.579Z,20.37
2018-11-20T19:31:05.600Z,20.57
2018-11-20T19:34:05.092Z,20.10
2018-11-20T19:36:58.373Z,18.73
2018-11-20T19:39:46.808Z,19.23
2018-11-20T19:42:33.128Z,21.37
2018-11-20T19:45:32.681Z,20.90
2018-11-20T19:48:11.438Z,19.13
2018-11-20T19:50:57.957Z,20.17
2018-11-20T19:53:44.633Z,19.93
2018-11-20T19:56:30.994Z,21.17
2018-11-20T19:59:14.177Z,20.57
2018-11-20T20:02:01.881Z,20.07
2018-11-20T20:04:48.449Z,19.07
2018-11-20T20:07:38.973Z,19.93
2018-11-20T20:10:30.901Z,19.90
2018-11-20T20:13:11.897Z,18.57
2018-11-20T20:19:25.912Z,21.20
2018-11-20T20:22:19.297Z,21.47
2018-11-20T20:25:01.396Z,19.07
2018-11-20T20:27:54.254Z,20.03
2018-11-20T20:30:54.029Z,18.17
2018-11-20T20:33:41.958Z,19.80
2018-11-20T20:36:29.570Z,21.00
2018-11-20T20:39:15.628Z,19.53
2018-11-20T20:42:20.809Z,20.93
2018-11-20T20:45:10.376Z,19.63
2018-11-20T20:48:01.772Z,20.50
2018-11-20T20:50:49.159Z,21.60
2018-11-20T20:53:38.476Z,19.67
2018-11-20T20:56:22.973Z,20.40
2018-11-20T20:59:16.921Z,22.00
2018-11-20T21:02:22.815Z,19.80
2018-11-20T21:05:19.394Z,17.93
2018-11-20T21:08:10.040Z,20.47
2018-11-20T21:10:57.669Z,20.60
2018-11-20T21:14:03.759Z,20.77
2018-11-20T21:17:06.362Z,20.70
2018-11-20T21:19:57.111Z,22.57
2018-11-20T21:22:56.852Z,19.97
2018-11-20T21:25:56.311Z,20.20
2018-11-20T21:28:42.708Z,19.33
2018-11-20T21:31:36.004Z,20.30
2018-11-20T21:34:33.084Z,20.53
2018-11-20T21:37:41.336Z,20.40
2018-11-20T21:40:34.692Z,19.97
2018-11-20T21:43:25.088Z,18.63
2018-11-20T21:46:24.765Z,21.20
2018-11-20T21:49:10.888Z,20.00
2018-11-20T21:52:04.201Z,21.50
2018-11-20T21:54:42.681Z,20.60
2018-11-20T21:57:37.759Z,23.77
2018-11-20T22:00:30.766Z,23.70
2018-11-20T22:03:30.355Z,21.33
2018-11-20T22:06:13.267Z,23.43
2018-11-20T22:08:59.219Z,22.23
2018-11-20T22:11:46.764Z,25.00
2018-11-20T22:14:31.844Z,22.00
2018-11-20T22:17:18.230Z,23.40
2018-11-20T22:20:04.318Z,22.07
2018-11-20T22:22:49.916Z,23.53
2018-11-20T22:25:40.495Z,21.20
2018-11-20T22:28:27.059Z,24.57
2018-11-20T22:31:12.644Z,24.53
2018-11-20T22:34:05.935Z,22.93
2018-11-20T22:36:53.007Z,24.93
2018-11-20T22:39:40.530Z,25.47
2018-11-20T22:42:21.786Z,22.57
2018-11-20T22:45:09.295Z,23.20
2018-11-20T22:47:51.892Z,22.90
2018-11-20T22:50:37.759Z,24.67
2018-11-20T22:53:27.982Z,24.50
2018-11-20T22:56:18.228Z,23.50
2018-11-20T22:59:13.292Z,22.83
2018-11-20T23:02:06.335Z,23.80
2018-11-20T23:04:54.518Z,24.87
2018-11-20T23:08:00.306Z,27.30
2018-11-20T23:10:29.268Z,24.13
2018-11-20T23:12:57.541Z,26.07
2018-11-20T23:15:25.878Z,23.97
2018-11-20T23:17:54.204Z,24.17
2018-11-20T23:20:22.472Z,24.77
2018-11-20T23:22:50.824Z,24.80
2018-11-20T23:25:19.067Z,24.30
2018-11-20T23:27:47.628Z,26.53
2018-11-20T23:30:16.534Z,24.90
2018-11-20T23:32:44.880Z,26.57
2018-11-20T23:35:13.604Z,22.27
2018-11-20T23:37:42.599Z,24.90
2018-11-20T23:40:12.129Z,24.50
2018-11-20T23:42:40.450Z,25.23
2018-11-20T23:45:10.914Z,24.00
2018-11-20T23:47:39.178Z,22.97
2018-11-20T23:50:09.322Z,23.10
2018-11-20T23:52:37.747Z,24.57
2018-11-20T23:55:08.110Z,24.80
2018-11-20T23:57:36.365Z,22.83
